Terminal Aerodrome Forecast
Issued by NWS

Home | Current Version | Previous Version | Text Only | Print | Product List | Glossary On
Versions: 1 2 3 4 5 6 7 8 9 10 11 12 13 14 15 16 17 18 19 20
000
FTUS41 KOKX 311401 AAA
TAFSWF
TAF AMD
KSWF 311401Z 3114/0118 28007KT P6SM SKC
     FM311500 29010KT P6SM SKC
     FM312300 29007KT P6SM SKC
     FM010200 VRB02KT P6SM FEW050 SCT100
     FM011500 27011KT P6SM SCT050 BKN100
      AMD NOT SKED=

USA.gov is the U.S. government's official web portal to all federal, state and local government web resources and services.